Time;durP1;ratioP1;P1;durP2;ratioP2;P2;SDS_P1;SDS_P2;PMS_P1;PMS_P2;Temp;Humidity;BMP_temperature;BMP_pressure;BME280_temperature;BME280_humidity;BME280_pressure;Samples;Min_cycle;Max_cycle;Signal;HPM_P1;HPM_P2
2021/06/12 00:00:32;;;;;;;18.92;11.03;;;;;;;12.77;100.00;98982.31;1726746;82;21129;-70
2021/06/12 00:03:00;;;;;;;16.17;9.60;;;;;;;12.77;100.00;98972.88;1731092;81;21043;-71
2021/06/12 00:05:27;;;;;;;14.47;9.40;;;;;;;12.77;100.00;98983.11;1713554;82;21071;-69
2021/06/12 00:07:54;;;;;;;12.58;9.38;;;;;;;12.80;100.00;98970.97;1728899;81;21009;-70
2021/06/12 00:10:33;;;;;;;12.98;9.30;;;;;;;12.78;100.00;98969.09;1727994;82;20965;-70
2021/06/12 00:13:00;;;;;;;11.08;9.10;;;;;;;12.77;100.00;98968.30;1697064;83;21164;-70
2021/06/12 00:15:27;;;;;;;10.30;8.48;;;;;;;12.78;100.00;98963.70;1731565;81;21094;-70
2021/06/12 00:17:55;;;;;;;12.10;8.73;;;;;;;12.75;100.00;98964.28;1708954;82;21424;-69
2021/06/12 00:20:26;;;;;;;18.98;9.00;;;;;;;12.74;100.00;98966.69;1693908;82;21108;-70
2021/06/12 00:22:54;;;;;;;10.10;8.45;;;;;;;12.70;100.00;98970.50;1730568;82;21575;-69
2021/06/12 00:25:24;;;;;;;13.80;9.60;;;;;;;12.68;100.00;98961.91;1737511;81;21145;-70
2021/06/12 00:27:51;;;;;;;12.90;8.35;;;;;;;12.71;100.00;98959.98;1719973;81;20957;-70
2021/06/12 00:30:18;;;;;;;11.48;8.10;;;;;;;12.70;100.00;98965.13;1742617;81;21000;-68
2021/06/12 00:32:45;;;;;;;11.90;8.98;;;;;;;12.67;100.00;98956.27;1721906;81;20893;-69
2021/06/12 00:35:14;;;;;;;10.20;8.10;;;;;;;12.63;100.00;98958.70;1714339;81;21004;-69
2021/06/12 00:37:41;;;;;;;9.78;7.42;;;;;;;12.57;100.00;98959.05;1723302;82;21102;-68
2021/06/12 00:40:12;;;;;;;12.13;8.53;;;;;;;12.56;100.00;98956.87;1725479;81;21054;-69
2021/06/12 00:42:39;;;;;;;11.95;7.95;;;;;;;12.55;100.00;98953.94;1667008;84;21068;-69
2021/06/12 00:45:12;;;;;;;17.77;8.73;;;;;;;12.51;100.00;98956.91;1703716;83;21751;-69
2021/06/12 00:47:40;;;;;;;11.48;9.00;;;;;;;12.46;100.00;98954.27;1690064;83;20987;-70
2021/06/12 00:50:09;;;;;;;12.43;8.85;;;;;;;12.43;100.00;98952.94;1726424;82;21309;-69
2021/06/12 00:52:37;;;;;;;9.65;8.65;;;;;;;12.34;100.00;98956.50;1729499;81;20920;-68
2021/06/12 00:55:09;;;;;;;10.95;9.45;;;;;;;12.32;100.00;98955.98;1685794;83;25104;-70
2021/06/12 00:57:37;;;;;;;12.45;9.18;;;;;;;12.27;100.00;98956.81;1734759;82;20920;-70
2021/06/12 01:00:17;;;;;;;15.95;9.20;;;;;;;12.18;100.00;98961.20;1734018;81;20952;-71
2021/06/12 01:02:44;;;;;;;10.63;8.45;;;;;;;12.11;100.00;98963.39;1722524;81;21137;-70
2021/06/12 01:05:11;;;;;;;11.97;8.60;;;;;;;12.11;100.00;98962.84;1692070;83;20921;-70
2021/06/12 01:07:38;;;;;;;12.75;9.40;;;;;;;12.12;100.00;98960.95;1730104;81;20896;-70
2021/06/12 01:10:10;;;;;;;17.87;9.43;;;;;;;12.07;100.00;98960.98;1708751;82;25117;-68
2021/06/12 01:12:51;;;;;;;13.60;9.85;;;;;;;12.08;100.00;98953.98;1686021;85;21001;-68
2021/06/12 01:15:18;;;;;;;12.05;9.33;;;;;;;12.01;100.00;98948.91;1721018;81;21091;-68
2021/06/12 01:18:01;;;;;;;12.40;9.60;;;;;;;11.97;100.00;98953.22;1728351;81;20958;-68
2021/06/12 01:20:59;;;;;;;13.43;10.03;;;;;;;11.90;100.00;98954.61;1726745;81;21027;-68
2021/06/12 01:24:04;;;;;;;;;;;;;;;11.81;100.00;98951.69;1715760;82;21664;-68
2021/06/12 01:27:05;;;;;;;13.05;9.30;;;;;;;11.79;100.00;98949.80;1722408;82;20076;-68
2021/06/12 01:30:09;;;;;;;10.32;9.15;;;;;;;11.79;100.00;98955.18;1681728;84;21910;-68
2021/06/12 01:32:40;;;;;;;13.28;11.03;;;;;;;11.84;100.00;98951.67;1690014;84;21039;-68
2021/06/12 01:35:30;;;;;;;13.32;10.35;;;;;;;11.75;100.00;98960.29;1690201;84;21577;-68
2021/06/12 01:37:57;;;;;;;15.65;11.22;;;;;;;11.72;100.00;98964.08;1690258;83;21106;-68
2021/06/12 01:40:26;;;;;;;14.00;10.65;;;;;;;11.69;100.00;98965.44;1690235;83;20932;-69
2021/06/12 01:42:53;;;;;;;18.77;11.22;;;;;;;11.65;100.00;98964.37;1687017;83;21165;-68
2021/06/12 01:45:21;;;;;;;17.35;11.68;;;;;;;11.61;100.00;98959.27;1689931;84;21059;-68
2021/06/12 01:47:48;;;;;;;13.00;9.48;;;;;;;11.62;100.00;98957.41;1688236;83;21577;-68
2021/06/12 01:50:16;;;;;;;16.27;10.98;;;;;;;11.59;100.00;98957.42;1688360;83;21023;-67
2021/06/12 01:52:43;;;;;;;14.25;10.48;;;;;;;11.57;100.00;98959.03;1690552;84;21688;-68
2021/06/12 01:55:12;;;;;;;12.33;9.50;;;;;;;11.63;100.00;98965.73;1693222;83;21116;-68
2021/06/12 01:57:43;;;;;;;14.10;9.65;;;;;;;11.70;100.00;98968.92;1692494;84;21185;-68
2021/06/12 02:00:12;;;;;;;13.90;8.80;;;;;;;11.75;100.00;98966.22;1693472;84;21549;-68
2021/06/12 02:02:43;;;;;;;12.37;8.85;;;;;;;11.74;100.00;98963.27;1693271;83;20912;-68
2021/06/12 02:05:20;;;;;;;11.25;9.60;;;;;;;11.71;100.00;98967.32;1695026;83;21512;-69
2021/06/12 02:07:47;;;;;;;22.67;9.30;;;;;;;11.74;100.00;98962.73;1729989;82;21147;-68
2021/06/12 02:10:24;;;;;;;12.63;9.78;;;;;;;11.72;100.00;98959.51;1732737;81;20885;-68
2021/06/12 02:12:52;;;;;;;11.18;9.28;;;;;;;11.78;100.00;98960.28;1744406;80;20893;-68
2021/06/12 02:15:18;;;;;;;17.95;9.38;;;;;;;11.86;100.00;98957.03;1720887;81;21035;-68
2021/06/12 02:17:45;;;;;;;11.03;8.88;;;;;;;11.91;100.00;98955.69;1732658;82;21795;-67
2021/06/12 02:20:16;;;;;;;13.93;9.25;;;;;;;11.92;100.00;98959.98;1729552;81;21817;-67
2021/06/12 02:22:49;;;;;;;17.12;10.58;;;;;;;11.89;100.00;98955.70;1685260;83;20933;-67
2021/06/12 02:25:17;;;;;;;15.25;9.13;;;;;;;11.86;100.00;98958.38;1729634;81;20992;-67
2021/06/12 02:27:55;;;;;;;13.47;10.03;;;;;;;11.90;100.00;98962.68;1730346;81;21405;-68
2021/06/12 02:30:27;;;;;;;14.43;9.23;;;;;;;11.95;100.00;98959.41;1710415;82;21518;-68
2021/06/12 02:33:04;;;;;;;10.00;8.80;;;;;;;12.01;100.00;98966.39;1735452;82;21178;-67
2021/06/12 02:35:31;;;;;;;14.03;9.93;;;;;;;12.04;100.00;98969.06;1726273;82;21525;-66
2021/06/12 02:38:00;;;;;;;14.63;10.03;;;;;;;12.11;100.00;98970.11;1730723;82;21046;-66
2021/06/12 02:40:27;;;;;;;10.43;9.30;;;;;;;12.18;100.00;98971.95;1728691;81;22067;-66
2021/06/12 02:42:54;;;;;;;10.40;9.30;;;;;;;12.26;100.00;98974.05;1685225;84;20861;-66
2021/06/12 02:45:23;;;;;;;9.80;8.88;;;;;;;12.33;100.00;98975.09;1717563;82;21134;-67
2021/06/12 02:48:00;;;;;;;13.13;9.18;;;;;;;12.37;100.00;98982.85;1684671;82;21221;-67
2021/06/12 02:50:32;;;;;;;16.40;9.00;;;;;;;12.44;100.00;98977.96;1715002;83;21005;-68
2021/06/12 02:53:06;;;;;;;10.25;8.63;;;;;;;12.53;100.00;98983.02;1720869;82;20901;-67
2021/06/12 02:55:38;;;;;;;10.65;8.10;;;;;;;12.66;100.00;98984.27;1686001;84;21190;-67
2021/06/12 02:58:05;;;;;;;15.50;8.08;;;;;;;12.79;100.00;98984.19;1712918;82;21154;-68
2021/06/12 03:00:34;;;;;;;8.98;8.08;;;;;;;12.88;100.00;98981.13;1721004;82;20993;-67
2021/06/12 03:03:00;;;;;;;;;;;;;;;12.99;100.00;98981.85;1737783;81;20921;-68
2021/06/12 03:05:28;;;;;;;9.78;8.20;;;;;;;13.11;100.00;98978.23;1727958;81;20168;-68
2021/06/12 03:07:58;;;;;;;9.35;8.25;;;;;;;13.23;100.00;98981.34;1727032;82;21480;-67
2021/06/12 03:10:28;;;;;;;7.80;7.00;;;;;;;13.36;100.00;98992.58;1706604;81;21990;-67
2021/06/12 03:12:55;;;;;;;9.15;7.00;;;;;;;13.48;100.00;98988.39;1722574;82;21060;-67
2021/06/12 03:15:23;;;;;;;13.13;9.03;;;;;;;13.62;100.00;98994.42;1720127;82;20972;-67
2021/06/12 03:17:51;;;;;;;11.15;7.40;;;;;;;13.74;100.00;98993.47;1728309;82;21044;-67
2021/06/12 03:20:18;;;;;;;10.40;7.85;;;;;;;13.87;100.00;98991.99;1722103;81;20916;-68
2021/06/12 03:22:47;;;;;;;9.60;7.10;;;;;;;13.96;100.00;98994.84;1715169;81;21148;-67
2021/06/12 03:25:15;;;;;;;11.35;7.72;;;;;;;14.09;100.00;98996.84;1729441;81;20975;-68
2021/06/12 03:27:42;;;;;;;9.10;7.25;;;;;;;14.29;100.00;98997.10;1723724;82;27199;-67
2021/06/12 03:30:12;;;;;;;8.05;6.75;;;;;;;14.39;100.00;98998.30;1686029;82;20973;-68
2021/06/12 03:32:39;;;;;;;7.53;6.65;;;;;;;14.49;100.00;99001.40;1719025;81;21020;-67
2021/06/12 03:35:08;;;;;;;10.90;6.87;;;;;;;14.57;100.00;99002.11;1707019;82;21148;-67
2021/06/12 03:37:34;;;;;;;9.88;7.78;;;;;;;14.71;100.00;99004.33;1713242;82;20853;-67
2021/06/12 03:40:03;;;;;;;14.03;6.67;;;;;;;14.83;100.00;99013.33;1723943;82;20996;-68
2021/06/12 03:42:30;;;;;;;8.33;6.08;;;;;;;14.88;100.00;99014.59;1726125;82;21555;-69
2021/06/12 03:44:58;;;;;;;9.25;6.67;;;;;;;14.99;100.00;99017.40;1671082;84;21408;-69
2021/06/12 03:47:25;;;;;;;17.32;7.40;;;;;;;15.12;100.00;99014.47;1729629;82;20909;-68
2021/06/12 03:49:53;;;;;;;10.72;6.03;;;;;;;15.25;100.00;99018.85;1699445;83;20987;-68
2021/06/12 03:52:23;;;;;;;11.05;6.25;;;;;;;15.33;100.00;99015.45;1727886;81;20912;-69
2021/06/12 03:54:51;;;;;;;9.45;6.92;;;;;;;15.37;100.00;99021.88;1718646;81;21051;-68
2021/06/12 03:57:19;;;;;;;10.10;6.60;;;;;;;15.41;100.00;99022.34;1713877;82;21403;-68
2021/06/12 03:59:47;;;;;;;14.28;7.12;;;;;;;15.44;100.00;99018.23;1709688;83;21204;-68
2021/06/12 04:02:15;;;;;;;;;;;;;;;15.43;100.00;99024.73;1736136;82;21645;-68
2021/06/12 04:04:46;;;;;;;14.35;7.37;;;;;;;15.50;100.00;99026.49;1724270;81;20114;-69
2021/06/12 04:07:14;;;;;;;11.53;6.55;;;;;;;15.64;100.00;99027.87;1712424;82;20985;-69
2021/06/12 04:09:41;;;;;;;12.07;6.47;;;;;;;15.76;100.00;99025.50;1719474;82;21500;-69
2021/06/12 04:12:08;;;;;;;8.20;7.00;;;;;;;16.02;100.00;99023.09;1710576;82;21147;-69
2021/06/12 04:14:35;;;;;;;9.03;6.08;;;;;;;16.15;100.00;99028.78;1712510;82;20934;-68
2021/06/12 04:17:04;;;;;;;8.43;6.42;;;;;;;16.15;100.00;99028.23;1719567;81;21468;-69
2021/06/12 04:19:30;;;;;;;9.75;6.85;;;;;;;16.15;100.00;99028.23;1708440;82;21883;-68
2021/06/12 04:21:57;;;;;;;10.18;6.60;;;;;;;16.27;100.00;99035.83;1733716;81;20952;-69
2021/06/12 04:24:24;;;;;;;7.55;6.60;;;;;;;16.33;100.00;99033.25;1694162;83;21976;-68
2021/06/12 04:26:52;;;;;;;9.35;6.55;;;;;;;16.50;100.00;99041.53;1724104;81;20992;-65
2021/06/12 04:29:19;;;;;;;8.35;6.50;;;;;;;16.68;100.00;99044.38;1704131;83;21051;-69
2021/06/12 04:31:46;;;;;;;9.95;6.97;;;;;;;16.74;100.00;99035.05;1731392;81;20985;-68
2021/06/12 04:34:13;;;;;;;14.18;7.92;;;;;;;16.83;100.00;99044.61;1712973;82;20998;-68
2021/06/12 04:36:40;;;;;;;8.80;7.62;;;;;;;16.77;100.00;99039.84;1703946;81;21467;-69
2021/06/12 04:39:06;;;;;;;14.87;7.33;;;;;;;16.80;100.00;99041.96;1703920;82;20931;-69
2021/06/12 04:41:33;;;;;;;12.25;7.87;;;;;;;16.93;100.00;99041.12;1725393;81;20984;-69
2021/06/12 04:44:00;;;;;;;11.83;8.15;;;;;;;16.98;100.00;99042.91;1719109;81;21528;-69
2021/06/12 04:46:27;;;;;;;10.28;7.15;;;;;;;16.95;100.00;99047.57;1704662;83;21099;-69
2021/06/12 04:48:54;;;;;;;9.95;7.70;;;;;;;17.15;100.00;99049.00;1688867;84;21148;-69
2021/06/12 04:51:20;;;;;;;12.40;8.25;;;;;;;17.35;100.00;99048.48;1723447;81;20921;-69
2021/06/12 04:53:47;;;;;;;13.03;8.55;;;;;;;17.48;100.00;99048.14;1711887;82;21620;-69
2021/06/12 04:56:13;;;;;;;13.93;8.45;;;;;;;17.60;100.00;99054.34;1718731;81;21037;-69
2021/06/12 04:58:40;;;;;;;11.18;7.97;;;;;;;17.61;100.00;99053.22;1729445;81;21496;-70
2021/06/12 05:01:06;;;;;;;10.50;7.12;;;;;;;17.67;100.00;99049.84;1727594;81;21113;-69
2021/06/12 05:03:36;;;;;;;10.63;7.95;;;;;;;17.87;100.00;99043.07;1735453;81;21427;-70
2021/06/12 05:06:04;;;;;;;12.82;8.08;;;;;;;18.02;100.00;99047.27;1711735;82;20985;-70
2021/06/12 05:08:30;;;;;;;;;;;;;;;18.13;100.00;99052.66;1686468;83;20981;-71
2021/06/12 05:10:59;;;;;;;9.48;7.67;;;;;;;18.21;100.00;99056.73;1721269;82;20168;-70
2021/06/12 05:13:26;;;;;;;12.13;8.18;;;;;;;18.21;100.00;99054.02;1711104;82;21452;-70
2021/06/12 05:15:54;;;;;;;12.03;8.75;;;;;;;18.32;100.00;99057.23;1721085;81;21059;-70
2021/06/12 05:18:28;;;;;;;11.28;8.25;;;;;;;18.40;100.00;99054.31;1724552;82;21553;-71
2021/06/12 05:20:49;;;;;;;13.98;8.33;;;;;;;18.58;100.00;99054.55;1710240;82;21605;-70
2021/06/12 05:23:16;;;;;;;10.72;8.15;;;;;;;18.66;100.00;99048.08;1730203;82;20979;-70
2021/06/12 05:25:42;;;;;;;9.80;7.70;;;;;;;19.02;100.00;99046.42;1730795;81;21134;-69
2021/06/12 05:28:09;;;;;;;11.80;7.60;;;;;;;19.37;100.00;99043.63;1727112;81;21534;-69
2021/06/12 05:30:35;;;;;;;10.03;7.33;;;;;;;19.48;100.00;99048.97;1724520;81;21436;-70
2021/06/12 05:33:02;;;;;;;9.48;7.83;;;;;;;19.70;100.00;99047.95;1732084;81;21017;-70
2021/06/12 05:35:29;;;;;;;12.25;7.10;;;;;;;20.02;100.00;99055.27;1730320;82;21542;-69
2021/06/12 05:37:55;;;;;;;10.72;8.25;;;;;;;20.27;100.00;99061.12;1716372;82;21143;-69
2021/06/12 05:40:22;;;;;;;9.10;7.67;;;;;;;20.62;100.00;99058.17;1738180;81;20963;-70
2021/06/12 05:42:49;;;;;;;11.80;7.75;;;;;;;20.92;100.00;99062.18;1723056;82;20940;-69
2021/06/12 05:45:16;;;;;;;10.03;7.22;;;;;;;21.09;100.00;99060.69;1727355;82;21110;-69
2021/06/12 05:47:42;;;;;;;8.53;7.10;;;;;;;21.18;100.00;99060.02;1715916;82;21036;-71
2021/06/12 05:50:10;;;;;;;9.60;6.90;;;;;;;21.14;100.00;99062.38;1707349;82;21153;-70
2021/06/12 05:52:37;;;;;;;8.05;6.15;;;;;;;21.38;100.00;99058.93;1669515;83;20996;-71
2021/06/12 05:55:05;;;;;;;;;;;;;;;21.51;100.00;99059.23;1672946;83;21617;-70
2021/06/12 05:57:32;;;;;;;8.13;7.00;;;;;;;21.62;100.00;99059.00;1701324;82;20446;-69
2021/06/12 05:59:59;;;;;;;9.47;6.87;;;;;;;21.96;100.00;99054.25;1691570;82;21086;-70
2021/06/12 06:02:28;;;;;;;8.25;5.90;;;;;;;21.91;100.00;99055.85;1682890;84;21152;-72
2021/06/12 06:04:55;;;;;;;11.28;6.35;;;;;;;21.99;100.00;99053.56;1689358;84;21000;-71
2021/06/12 06:07:22;;;;;;;6.62;5.95;;;;;;;22.15;100.00;99055.05;1666186;83;21017;-72
2021/06/12 06:09:50;;;;;;;8.65;6.75;;;;;;;22.08;100.00;99055.41;1667376;83;21030;-70
2021/06/12 06:12:17;;;;;;;9.97;6.27;;;;;;;22.07;100.00;99049.69;1667821;84;21030;-72
2021/06/12 06:14:44;;;;;;;29.95;12.23;;;;;;;22.07;100.00;99049.69;1670586;83;21653;-72
2021/06/12 06:17:11;;;;;;;9.58;5.85;;;;;;;22.33;100.00;99052.89;1710847;82;21030;-72
2021/06/12 06:19:37;;;;;;;9.83;5.75;;;;;;;22.44;100.00;99049.91;1712925;83;20959;-71
2021/06/12 06:22:05;;;;;;;8.43;6.40;;;;;;;22.35;100.00;99051.98;1708910;82;21007;-71
2021/06/12 06:24:35;;;;;;;7.25;5.67;;;;;;;22.69;100.00;99057.48;1689632;82;21098;-71
2021/06/12 06:27:02;;;;;;;6.43;5.40;;;;;;;22.81;100.00;99055.28;1680182;83;21471;-71
2021/06/12 06:29:29;;;;;;;9.73;5.97;;;;;;;22.76;100.00;99051.98;1685888;84;21024;-71
2021/06/12 06:31:56;;;;;;;7.58;6.00;;;;;;;22.96;100.00;99055.11;1675664;83;20985;-71
2021/06/12 06:34:23;;;;;;;11.08;5.47;;;;;;;23.21;100.00;99048.97;1707691;82;21057;-70
2021/06/12 06:36:50;;;;;;;6.80;5.70;;;;;;;23.70;97.95;99050.03;1696760;83;21068;-70
2021/06/12 06:39:17;;;;;;;7.57;4.73;;;;;;;24.11;95.65;99053.98;1693988;83;21146;-70
2021/06/12 06:41:44;;;;;;;14.18;7.03;;;;;;;24.17;96.20;99058.02;1662926;84;21092;-70
2021/06/12 06:44:11;;;;;;;8.10;6.53;;;;;;;24.30;95.25;99047.73;1642547;83;21017;-71
2021/06/12 06:46:41;;;;;;;9.15;6.08;;;;;;;24.25;97.24;99050.16;1703751;81;21535;-71
2021/06/12 06:49:11;;;;;;;6.87;6.17;;;;;;;24.22;98.02;99052.84;1710577;81;21609;-69
2021/06/12 06:51:40;;;;;;;9.65;6.75;;;;;;;24.17;95.34;99051.16;1719683;81;21128;-68
2021/06/12 06:54:07;;;;;;;8.25;6.30;;;;;;;23.97;95.50;99044.84;1711735;81;21056;-69
2021/06/12 06:56:33;;;;;;;8.15;6.03;;;;;;;23.84;96.78;99041.98;1679170;84;21593;-69
2021/06/12 06:59:02;;;;;;;9.60;6.30;;;;;;;23.72;95.13;99039.52;1672539;84;21455;-71
2021/06/12 07:01:30;;;;;;;8.10;5.42;;;;;;;23.74;95.90;99048.22;1677940;83;21702;-68
2021/06/12 07:03:59;;;;;;;13.68;5.25;;;;;;;23.78;94.63;99052.40;1719050;81;21177;-70
2021/06/12 07:06:26;;;;;;;5.70;3.65;;;;;;;24.24;95.31;99056.03;1688898;82;21063;-68
2021/06/12 07:08:53;;;;;;;4.62;3.65;;;;;;;24.46;87.32;99054.59;1643630;85;21108;-69
2021/06/12 07:11:20;;;;;;;6.75;4.58;;;;;;;24.26;87.84;99056.47;1680836;82;21578;-70
2021/06/12 07:13:47;;;;;;;5.25;4.60;;;;;;;24.33;85.35;99053.89;1671699;82;21112;-68
2021/06/12 07:16:14;;;;;;;14.55;6.90;;;;;;;24.57;84.44;99055.59;1683142;83;21850;-70
2021/06/12 07:18:42;;;;;;;5.65;4.42;;;;;;;24.70;86.24;99057.06;1690616;83;21071;-69
2021/06/12 07:21:08;;;;;;;7.78;4.20;;;;;;;24.80;85.83;99055.70;1686592;82;21049;-70
2021/06/12 07:23:35;;;;;;;6.20;4.20;;;;;;;24.59;84.07;99057.41;1669908;84;21041;-69
2021/06/12 07:26:04;;;;;;;7.15;4.55;;;;;;;24.49;82.41;99053.28;1697694;81;21046;-73
2021/06/12 07:28:34;;;;;;;4.30;3.90;;;;;;;24.42;81.36;99053.67;1694342;82;21118;-71
2021/06/12 07:31:00;;;;;;;4.33;3.10;;;;;;;24.34;82.45;99053.52;1653304;84;21307;-71
2021/06/12 07:33:27;;;;;;;5.17;4.67;;;;;;;24.43;82.66;99048.42;1696113;82;21024;-70
2021/06/12 07:35:54;;;;;;;5.40;4.30;;;;;;;24.55;82.84;99054.60;1698058;82;21023;-71
2021/06/12 07:38:21;;;;;;;9.30;5.20;;;;;;;24.54;83.02;99055.73;1723254;81;21717;-71
2021/06/12 07:40:50;;;;;;;4.05;3.58;;;;;;;23.91;85.87;99049.80;1673560;84;21274;-72
2021/06/12 07:43:23;;;;;;;4.90;4.08;;;;;;;23.64;89.57;99056.94;1673117;82;21029;-70
2021/06/12 07:45:52;;;;;;;3.72;3.42;;;;;;;23.26;87.30;99047.92;1666138;84;21788;-69
2021/06/12 07:48:19;;;;;;;4.47;4.03;;;;;;;22.81;92.58;99049.81;1672289;82;21042;-70
2021/06/12 07:50:48;;;;;;;6.35;4.50;;;;;;;22.58;92.81;99050.10;1671546;83;20974;-69
2021/06/12 07:53:16;;;;;;;8.20;3.70;;;;;;;22.93;92.55;99053.63;1666195;83;21215;-69
2021/06/12 07:55:43;;;;;;;7.28;3.80;;;;;;;23.52;88.38;99047.44;1663501;84;21078;-69
2021/06/12 07:58:09;;;;;;;6.55;4.15;;;;;;;24.04;82.10;99062.03;1671094;84;21101;-70
2021/06/12 08:00:36;;;;;;;6.50;3.52;;;;;;;24.24;78.95;99055.44;1684329;82;21042;-71
2021/06/12 08:03:05;;;;;;;5.25;3.42;;;;;;;24.57;78.24;99060.53;1670996;83;21063;-71
2021/06/12 08:05:34;;;;;;;3.90;3.17;;;;;;;24.97;75.16;99064.86;1665112;83;21323;-70
2021/06/12 08:08:01;;;;;;;5.00;3.00;;;;;;;25.39;71.76;99066.86;1692366;83;21087;-69
2021/06/12 08:10:30;;;;;;;4.53;3.27;;;;;;;25.41;70.50;99060.42;1693779;83;21093;-71
2021/06/12 08:12:59;;;;;;;5.80;3.50;;;;;;;25.18;62.61;99061.75;1716283;83;21036;-70
2021/06/12 08:15:25;;;;;;;4.15;3.05;;;;;;;24.99;66.71;99061.77;1715101;82;21123;-70
2021/06/12 08:17:54;;;;;;;5.90;3.50;;;;;;;24.93;65.45;99060.45;1717314;81;21992;-69
2021/06/12 08:20:21;;;;;;;6.92;3.37;;;;;;;24.86;67.25;99061.09;1714348;81;21681;-68
2021/06/12 08:22:48;;;;;;;5.03;3.25;;;;;;;25.20;65.01;99059.44;1716695;81;21061;-71
2021/06/12 08:25:15;;;;;;;4.63;2.50;;;;;;;25.24;64.53;99056.19;1681499;83;20970;-68
2021/06/12 08:27:41;;;;;;;3.90;3.60;;;;;;;25.38;64.18;99056.23;1708110;82;21053;-70
2021/06/12 08:30:10;;;;;;;4.37;3.00;;;;;;;25.52;63.29;99056.48;1712575;83;21900;-74
2021/06/12 08:32:38;;;;;;;6.70;3.20;;;;;;;25.56;64.86;99055.19;1718207;81;21049;-69
2021/06/12 08:35:07;;;;;;;6.05;3.70;;;;;;;25.38;62.92;99055.67;1708710;82;20921;-71
2021/06/12 08:37:34;;;;;;;4.08;2.67;;;;;;;25.35;65.08;99052.84;1714544;83;21000;-69
2021/06/12 08:40:01;;;;;;;4.58;3.42;;;;;;;25.53;63.22;99055.90;1715970;82;20957;-70
2021/06/12 08:42:27;;;;;;;5.85;3.00;;;;;;;25.88;59.60;99058.50;1711306;83;21782;-69
2021/06/12 08:44:56;;;;;;;4.85;2.92;;;;;;;25.94;60.52;99052.09;1697519;82;20998;-72
2021/06/12 08:47:23;;;;;;;3.95;3.22;;;;;;;26.23;58.48;99061.58;1697766;83;20991;-70
2021/06/12 08:49:53;;;;;;;4.57;2.90;;;;;;;26.26;61.28;99056.70;1721401;82;21537;-72
2021/06/12 08:52:20;;;;;;;3.30;2.70;;;;;;;26.16;60.44;99055.37;1708728;81;21532;-71
2021/06/12 08:54:48;;;;;;;3.92;3.15;;;;;;;26.71;59.15;99058.53;1708272;82;20937;-69
2021/06/12 08:57:15;;;;;;;3.10;2.85;;;;;;;26.73;52.35;99064.46;1711145;82;21048;-70
2021/06/12 08:59:42;;;;;;;3.65;2.90;;;;;;;26.40;50.37;99053.37;1722019;83;21071;-70
2021/06/12 09:02:10;;;;;;;3.03;2.73;;;;;;;26.44;49.88;99049.50;1723410;82;21547;-71
2021/06/12 09:04:43;;;;;;;2.92;2.60;;;;;;;26.38;51.79;99046.06;1720170;82;21372;-70
2021/06/12 09:13:52;;;;;;;3.58;3.27;;;;;;;26.62;56.43;99041.50;1615518;86;20964;-67
2021/06/12 09:16:38;;;;;;;5.30;3.70;;;;;;;26.79;56.56;99035.22;1627039;86;21134;-69
2021/06/12 09:19:15;;;;;;;5.08;3.62;;;;;;;26.77;60.83;99034.21;1624589;86;21633;-70
2021/06/12 09:21:59;;;;;;;5.62;3.70;;;;;;;26.82;56.34;99034.47;1620712;87;21177;-69
2021/06/12 09:24:39;;;;;;;6.17;4.10;;;;;;;26.61;56.51;99024.00;1628501;86;21055;-69
2021/06/12 09:27:16;;;;;;;5.75;3.85;;;;;;;26.34;61.52;99018.52;1633535;86;21792;-70
2021/06/12 09:29:48;;;;;;;8.85;4.92;;;;;;;26.30;61.47;99023.95;1610828;86;21103;-69
2021/06/12 09:32:21;;;;;;;5.65;4.45;;;;;;;25.98;61.31;99019.38;1606814;86;21538;-70
2021/06/12 09:34:51;;;;;;;5.20;3.77;;;;;;;26.01;61.48;99018.63;1614144;86;21170;-71
2021/06/12 09:37:27;;;;;;;20.85;4.28;;;;;;;26.34;59.39;99013.60;1621575;86;21014;-70
2021/06/12 09:40:15;;;;;;;3.52;3.22;;;;;;;26.72;59.61;99015.28;1605836;86;20975;-70
2021/06/12 09:42:55;;;;;;;7.67;4.53;;;;;;;26.61;55.42;99006.91;1608083;86;21010;-71
2021/06/12 09:45:24;;;;;;;4.35;3.87;;;;;;;26.41;56.76;99009.55;1611805;87;21612;-68
2021/06/12 09:48:00;;;;;;;4.70;3.92;;;;;;;26.91;54.71;99005.47;1646645;86;21146;-69
2021/06/12 09:50:26;;;;;;;5.67;3.83;;;;;;;27.44;54.23;99000.33;1685433;83;21699;-69
2021/06/12 09:52:53;;;;;;;3.67;3.37;;;;;;;27.12;54.18;98987.02;1713457;81;21000;-71
2021/06/12 09:55:30;;;;;;;6.60;3.60;;;;;;;26.84;54.38;98983.36;1716653;82;21076;-70
2021/06/12 09:58:03;;;;;;;4.37;3.60;;;;;;;26.48;55.67;98990.38;1716095;83;21079;-73
2021/06/12 10:00:42;;;;;;;6.40;3.85;;;;;;;26.67;51.48;98990.84;1678623;83;21236;-70
2021/06/12 10:03:27;;;;;;;5.28;3.15;;;;;;;26.38;50.41;98987.70;1700468;84;20978;-67
2021/06/12 10:06:17;;;;;;;5.03;3.05;;;;;;;26.47;54.80;98975.83;1688049;83;21013;-70
2021/06/12 10:08:49;;;;;;;4.28;3.22;;;;;;;26.72;51.40;98985.78;1700359;83;21011;-71
2021/06/12 10:11:18;;;;;;;3.35;3.05;;;;;;;26.88;49.16;98984.20;1717706;82;21040;-70
2021/06/12 10:13:46;;;;;;;8.40;3.75;;;;;;;27.05;46.97;98981.43;1709377;81;21066;-69
2021/06/12 10:16:14;;;;;;;3.50;3.20;;;;;;;26.73;49.79;98988.77;1707354;82;21042;-69
2021/06/12 10:18:42;;;;;;;6.72;3.10;;;;;;;26.86;50.29;98983.00;1722786;82;20954;-69
2021/06/12 10:21:13;;;;;;;4.05;3.20;;;;;;;26.88;47.83;98982.04;1702330;83;21000;-70
2021/06/12 10:23:46;;;;;;;6.05;3.80;;;;;;;26.93;46.61;98981.70;1651160;86;21610;-71
2021/06/12 10:26:16;;;;;;;4.30;3.90;;;;;;;27.03;48.81;98982.39;1678834;83;21147;-69
2021/06/12 10:28:43;;;;;;;5.47;2.98;;;;;;;27.22;47.92;98983.38;1697671;83;21049;-70
2021/06/12 10:31:17;;;;;;;6.75;4.05;;;;;;;27.08;50.02;98971.62;1643740;85;21637;-67
2021/06/12 10:33:50;;;;;;;4.65;3.12;;;;;;;27.16;49.41;98979.55;1647643;85;21128;-68
2021/06/12 10:36:25;;;;;;;5.72;2.90;;;;;;;27.22;45.39;98973.73;1658330;84;21017;-68
2021/06/12 10:38:56;;;;;;;3.37;2.83;;;;;;;27.18;45.40;98977.02;1658141;84;21160;-69
2021/06/12 10:41:34;;;;;;;4.85;3.12;;;;;;;27.45;43.97;98974.34;1658095;84;20951;-71
2021/06/12 10:44:03;;;;;;;4.42;3.20;;;;;;;27.63;45.28;98974.47;1659229;86;21068;-70
2021/06/12 10:46:31;;;;;;;6.45;3.40;;;;;;;27.77;44.80;98972.41;1661000;85;21139;-71
2021/06/12 10:49:03;;;;;;;4.62;3.20;;;;;;;27.55;46.26;98972.84;1661440;84;20958;-68
2021/06/12 10:51:41;;;;;;;4.83;3.40;;;;;;;27.82;46.78;98963.81;1651739;85;21141;-71
2021/06/12 10:54:23;;;;;;;4.80;3.60;;;;;;;28.10;45.48;98959.63;1660997;84;21535;-72
2021/06/12 10:57:15;;;;;;;4.15;3.33;;;;;;;28.25;44.23;98965.45;1651618;86;21033;-70
2021/06/12 10:59:52;;;;;;;5.92;3.40;;;;;;;27.88;45.37;98962.85;1615737;87;21048;-72
2021/06/12 11:05:06;;;;;;;7.67;3.40;;;;;;;28.18;45.24;98955.16;1613911;87;21551;-69
2021/06/12 11:07:35;;;;;;;3.22;2.92;;;;;;;27.79;44.32;98949.39;1618960;87;21547;-70
2021/06/12 11:10:23;;;;;;;3.30;3.00;;;;;;;27.69;46.14;98949.52;1618832;87;21154;-71
2021/06/12 11:12:56;;;;;;;14.75;3.52;;;;;;;27.90;42.40;98947.50;1615595;87;21053;-67
2021/06/12 11:15:28;;;;;;;6.35;2.77;;;;;;;27.98;41.91;98940.09;1610570;87;21105;-70
2021/06/12 11:18:16;;;;;;;3.37;2.50;;;;;;;27.41;40.34;98938.28;1604678;87;21511;-69
2021/06/12 11:20:48;;;;;;;6.42;3.45;;;;;;;27.55;42.19;98943.91;1613341;88;21120;-68
2021/06/12 11:23:19;;;;;;;4.85;3.70;;;;;;;28.05;42.07;98936.55;1619707;87;21797;-73
2021/06/12 11:25:55;;;;;;;6.17;3.20;;;;;;;27.63;44.31;98930.95;1614334;87;21152;-71
2021/06/12 11:28:28;;;;;;;5.90;3.23;;;;;;;27.14;46.94;98928.21;1608115;88;21576;-71
2021/06/12 11:31:22;;;;;;;9.33;3.98;;;;;;;27.07;51.29;98920.45;1588769;89;21220;-67
2021/06/12 11:34:21;;;;;;;9.75;4.90;;;;;;;27.58;49.53;98919.14;1612032;87;21166;-68
2021/06/12 11:37:18;;;;;;;8.05;4.53;;;;;;;27.11;53.15;98922.06;1641576;82;21082;-68
2021/06/12 11:40:01;;;;;;;6.60;4.40;;;;;;;26.42;53.44;98918.98;1714246;82;21512;-69
2021/06/12 11:42:48;;;;;;;8.28;4.72;;;;;;;26.06;54.43;98914.41;1631453;85;21088;-68
2021/06/12 11:45:23;;;;;;;5.95;4.15;;;;;;;25.81;57.52;98911.29;1631097;85;21492;-70
2021/06/12 11:47:51;;;;;;;9.80;4.87;;;;;;;25.69;58.17;98904.05;1649087;84;21042;-68
2021/06/12 11:50:28;;;;;;;7.05;4.15;;;;;;;25.44;58.36;98900.36;1637209;85;21039;-69